createdAt,value
2023-03-26T00:00:25.008Z,12.10
2023-03-26T00:03:27.039Z,12.00
2023-03-26T00:06:31.757Z,11.90
2023-03-26T00:09:33.724Z,12.00
2023-03-26T00:12:35.717Z,12.00
2023-03-26T00:15:38.475Z,12.00
2023-03-26T00:18:41.643Z,11.90
2023-03-26T00:21:43.785Z,11.90
2023-03-26T00:24:45.825Z,11.90
2023-03-26T00:27:47.990Z,11.90
2023-03-26T00:30:56.842Z,11.90
2023-03-26T00:33:59.102Z,11.80
2023-03-26T00:37:01.132Z,11.90
2023-03-26T00:40:04.287Z,11.80
2023-03-26T00:43:06.520Z,11.80
2023-03-26T00:46:09.129Z,11.80
2023-03-26T00:49:11.281Z,11.90
2023-03-26T00:52:13.300Z,11.90
2023-03-26T00:55:15.258Z,11.90
2023-03-26T00:58:28.995Z,11.90
2023-03-26T01:01:31.486Z,11.90
2023-03-26T01:04:35.391Z,12.00
2023-03-26T01:07:38.224Z,11.90
2023-03-26T01:10:40.279Z,11.90
2023-03-26T01:13:57.066Z,12.00
2023-03-26T01:17:01.942Z,12.00
2023-03-26T01:20:23.776Z,12.00
2023-03-26T01:23:37.635Z,12.00
2023-03-26T01:26:43.345Z,12.10
2023-03-26T01:29:57.418Z,12.10
2023-03-26T01:33:09.507Z,12.10
2023-03-26T01:36:25.502Z,12.10
2023-03-26T01:39:50.842Z,12.00
2023-03-26T01:43:06.385Z,12.10
2023-03-26T01:46:11.160Z,12.10
2023-03-26T01:49:13.415Z,12.10
2023-03-26T01:52:20.628Z,12.10
2023-03-26T01:55:28.404Z,12.10
2023-03-26T01:58:45.344Z,12.10
2023-03-26T02:02:03.470Z,12.10
2023-03-26T02:05:14.454Z,12.10
2023-03-26T02:08:16.559Z,12.20
2023-03-26T02:11:19.975Z,12.20
2023-03-26T02:14:22.598Z,12.10
2023-03-26T02:17:24.671Z,12.10
2023-03-26T02:20:27.899Z,12.10
2023-03-26T02:23:29.855Z,12.10
2023-03-26T02:26:34.136Z,12.10
2023-03-26T02:29:45.281Z,12.10
2023-03-26T02:32:47.733Z,12.10
2023-03-26T02:35:49.855Z,12.00
2023-03-26T02:38:51.840Z,12.00
2023-03-26T02:41:53.904Z,12.00
2023-03-26T02:44:58.326Z,12.10
2023-03-26T02:48:35.532Z,12.00
2023-03-26T02:51:46.786Z,12.00
2023-03-26T02:55:00.333Z,12.00
2023-03-26T02:58:02.955Z,11.90
2023-03-26T03:01:10.635Z,11.90
2023-03-26T03:04:22.201Z,11.90
2023-03-26T03:07:24.518Z,11.90
2023-03-26T03:10:27.238Z,11.90
2023-03-26T03:13:45.858Z,11.90
2023-03-26T03:16:51.906Z,11.90
2023-03-26T03:19:56.899Z,11.90
2023-03-26T03:22:59.033Z,11.90
2023-03-26T03:26:01.028Z,11.90
2023-03-26T03:29:05.621Z,11.90
2023-03-26T03:32:08.174Z,11.90
2023-03-26T03:35:16.635Z,11.90
2023-03-26T03:38:23.989Z,11.90
2023-03-26T03:41:27.497Z,11.80
2023-03-26T03:44:29.878Z,11.80
2023-03-26T03:47:32.472Z,11.80
2023-03-26T03:50:35.838Z,11.90
2023-03-26T03:53:58.837Z,11.90
2023-03-26T03:57:21.156Z,11.90
2023-03-26T04:00:39.761Z,11.90
2023-03-26T04:04:01.808Z,11.90
2023-03-26T04:07:19.252Z,11.90
2023-03-26T04:10:40.315Z,11.70
2023-03-26T04:13:42.504Z,11.50
2023-03-26T04:17:07.523Z,11.30
2023-03-26T04:20:13.130Z,11.30
2023-03-26T04:23:19.070Z,11.20
2023-03-26T04:26:25.388Z,11.20
2023-03-26T04:29:48.237Z,11.10
2023-03-26T04:32:54.672Z,10.90
2023-03-26T04:35:57.120Z,10.90
2023-03-26T04:39:02.638Z,10.80
2023-03-26T04:42:24.583Z,10.80
2023-03-26T04:45:40.652Z,11.00
2023-03-26T04:48:42.708Z,10.90
2023-03-26T04:51:45.258Z,11.00
2023-03-26T04:55:24.140Z,11.10
2023-03-26T04:58:34.038Z,11.00
2023-03-26T05:01:36.833Z,11.00
2023-03-26T05:04:40.006Z,10.90
2023-03-26T05:07:44.182Z,10.90
2023-03-26T05:10:49.282Z,10.90
2023-03-26T05:13:58.534Z,10.80
2023-03-26T05:17:01.740Z,10.80
2023-03-26T05:20:04.125Z,10.90
2023-03-26T05:23:06.368Z,10.80
2023-03-26T05:26:11.336Z,10.90
2023-03-26T05:29:14.956Z,11.00
2023-03-26T05:32:21.465Z,11.00
2023-03-26T05:35:27.682Z,10.80
2023-03-26T05:38:31.855Z,10.60
2023-03-26T05:41:35.248Z,10.60
2023-03-26T05:44:37.265Z,10.70
2023-03-26T05:47:49.332Z,10.80
2023-03-26T05:50:54.643Z,10.90
2023-03-26T05:53:57.250Z,10.90
2023-03-26T05:57:19.356Z,10.90
2023-03-26T06:01:04.455Z,11.10
2023-03-26T06:04:22.137Z,10.90
2023-03-26T06:07:41.621Z,10.90
2023-03-26T06:10:51.213Z,10.90
2023-03-26T06:13:53.377Z,11.00
2023-03-26T06:16:55.673Z,10.90
2023-03-26T06:19:57.716Z,10.90
2023-03-26T06:23:09.759Z,11.00
2023-03-26T06:26:28.310Z,11.20
2023-03-26T06:29:37.715Z,11.20
2023-03-26T06:32:45.839Z,11.20
2023-03-26T06:35:53.428Z,11.20
2023-03-26T06:38:55.974Z,11.20
2023-03-26T06:41:58.095Z,11.10
2023-03-26T06:45:33.428Z,11.20
2023-03-26T06:49:10.980Z,11.30
2023-03-26T06:52:45.481Z,11.30
2023-03-26T06:56:10.873Z,11.40
2023-03-26T06:59:30.879Z,11.40
2023-03-26T07:03:08.702Z,11.40
2023-03-26T07:06:46.147Z,11.40
2023-03-26T07:10:07.302Z,11.40
2023-03-26T07:13:14.758Z,11.40
2023-03-26T07:16:25.548Z,11.40
2023-03-26T07:19:44.218Z,11.40
2023-03-26T07:22:46.831Z,11.40
2023-03-26T07:25:52.192Z,11.40
2023-03-26T07:29:43.804Z,11.40
2023-03-26T07:33:17.626Z,11.30
2023-03-26T07:37:13.311Z,11.10
2023-03-26T07:40:46.611Z,10.90
2023-03-26T07:44:26.181Z,10.90
2023-03-26T07:47:37.258Z,10.80
2023-03-26T07:50:58.354Z,10.70
2023-03-26T07:54:20.729Z,10.90
2023-03-26T07:57:59.884Z,10.90
2023-03-26T08:01:37.097Z,10.80
2023-03-26T08:04:57.388Z,10.80
2023-03-26T08:08:45.319Z,10.80
2023-03-26T08:12:29.013Z,10.90
2023-03-26T08:15:53.240Z,10.80
2023-03-26T08:18:58.115Z,10.80
2023-03-26T08:22:12.168Z,10.90
2023-03-26T08:25:37.434Z,10.90
2023-03-26T08:28:45.126Z,10.90
2023-03-26T08:31:49.535Z,10.90
2023-03-26T08:34:51.506Z,10.90
2023-03-26T08:37:53.800Z,10.90
2023-03-26T08:41:05.921Z,10.90
2023-03-26T08:44:14.459Z,10.70
2023-03-26T08:47:55.667Z,11.00
2023-03-26T08:51:03.174Z,11.30
2023-03-26T08:54:23.260Z,11.80
2023-03-26T08:57:49.882Z,12.40
2023-03-26T09:01:10.536Z,13.20
2023-03-26T09:04:44.116Z,13.10
2023-03-26T09:08:23.033Z,12.70
2023-03-26T09:11:43.212Z,12.50
2023-03-26T09:14:51.423Z,12.40
2023-03-26T09:18:16.602Z,12.20
2023-03-26T09:21:44.184Z,12.00
2023-03-26T09:25:07.453Z,11.90
2023-03-26T09:28:56.543Z,11.90
2023-03-26T09:32:07.546Z,11.90
2023-03-26T09:35:18.306Z,11.90
2023-03-26T09:38:37.569Z,12.00
2023-03-26T09:41:48.384Z,12.10
2023-03-26T09:45:05.280Z,12.40
2023-03-26T09:48:16.141Z,12.50
2023-03-26T09:51:29.766Z,12.60
2023-03-26T09:54:40.733Z,12.70
2023-03-26T09:58:20.903Z,13.00
2023-03-26T10:01:35.320Z,13.80
2023-03-26T10:05:23.519Z,14.40
2023-03-26T10:08:34.179Z,16.50
2023-03-26T10:12:12.079Z,17.50
2023-03-26T10:15:23.976Z,18.10
2023-03-26T10:18:48.371Z,18.70
2023-03-26T10:22:01.881Z,18.90
2023-03-26T10:25:29.220Z,19.20
2023-03-26T10:28:59.027Z,19.20
2023-03-26T10:32:06.567Z,19.50
2023-03-26T10:35:39.639Z,19.60
2023-03-26T10:39:35.986Z,20.00
2023-03-26T10:42:55.404Z,20.00
2023-03-26T10:46:08.089Z,20.20
2023-03-26T10:49:34.878Z,20.10
2023-03-26T11:03:43.334Z,19.80
2023-03-26T11:07:04.472Z,18.90
2023-03-26T11:10:17.755Z,18.30
2023-03-26T11:13:59.077Z,17.90
2023-03-26T11:17:40.306Z,18.10
2023-03-26T11:20:47.987Z,18.40
2023-03-26T11:24:06.645Z,18.00
2023-03-26T11:27:23.733Z,18.00
2023-03-26T11:30:48.900Z,17.50
2023-03-26T11:33:56.020Z,17.50
2023-03-26T11:37:01.600Z,17.30
2023-03-26T11:40:13.944Z,17.00
2023-03-26T11:43:18.964Z,17.20
2023-03-26T11:46:23.587Z,17.60
2023-03-26T11:49:27.762Z,17.40
2023-03-26T11:52:29.852Z,17.30
2023-03-26T11:55:32.524Z,17.40
2023-03-26T11:58:50.086Z,17.50
2023-03-26T12:02:09.954Z,17.20
2023-03-26T12:05:13.054Z,17.40
2023-03-26T12:08:21.840Z,17.90
2023-03-26T12:11:28.695Z,17.70
2023-03-26T12:14:34.824Z,17.50
2023-03-26T12:17:38.692Z,17.40
2023-03-26T12:20:40.809Z,17.10
2023-03-26T12:23:55.097Z,17.50
2023-03-26T12:26:58.202Z,17.90
2023-03-26T12:30:10.017Z,17.70
2023-03-26T12:33:19.848Z,17.90
2023-03-26T12:36:31.325Z,17.80
2023-03-26T12:40:09.552Z,17.80
2023-03-26T12:44:56.402Z,17.80
2023-03-26T12:47:58.925Z,17.90
2023-03-26T12:49:52.550Z,17.90
2023-03-26T12:53:01.502Z,17.80
2023-03-26T12:56:27.038Z,17.50
2023-03-26T13:00:14.678Z,17.50
2023-03-26T13:03:28.627Z,17.60
2023-03-26T13:07:09.574Z,17.70
2023-03-26T13:10:33.466Z,17.50
2023-03-26T13:13:47.820Z,17.70
2023-03-26T13:17:02.462Z,17.90
2023-03-26T13:20:39.645Z,17.90
2023-03-26T13:24:13.731Z,17.70
2023-03-26T13:27:36.542Z,17.50
2023-03-26T13:30:52.643Z,17.40
2023-03-26T13:34:16.169Z,17.30
2023-03-26T13:37:30.864Z,17.40
2023-03-26T13:40:46.776Z,17.20
2023-03-26T13:44:03.185Z,16.90
2023-03-26T13:47:13.515Z,16.80
2023-03-26T13:50:31.046Z,16.70
2023-03-26T13:53:44.240Z,16.50
2023-03-26T13:57:02.322Z,16.40
2023-03-26T14:00:15.280Z,16.20
2023-03-26T14:03:49.892Z,15.90
2023-03-26T14:07:01.456Z,15.50
2023-03-26T14:10:19.942Z,15.10
2023-03-26T14:13:39.108Z,14.80
2023-03-26T14:16:51.227Z,14.40
2023-03-26T14:20:12.178Z,13.90
2023-03-26T14:23:38.646Z,13.60
2023-03-26T14:27:02.050Z,13.30
2023-03-26T14:30:28.412Z,13.10
2023-03-26T14:34:07.604Z,12.90
2023-03-26T14:37:31.389Z,12.70
2023-03-26T14:40:52.312Z,12.60
2023-03-26T14:44:28.347Z,12.30
2023-03-26T14:47:31.083Z,12.00
2023-03-26T14:50:36.013Z,12.00
2023-03-26T14:54:09.668Z,12.00
2023-03-26T14:57:26.848Z,12.10
2023-03-26T15:01:17.056Z,12.20
2023-03-26T15:04:40.413Z,12.20
2023-03-26T15:08:03.402Z,12.00
2023-03-26T15:11:17.784Z,12.10
2023-03-26T15:14:50.884Z,12.00
2023-03-26T15:18:12.554Z,11.90
2023-03-26T15:21:45.931Z,12.00
2023-03-26T15:25:25.202Z,12.00
2023-03-26T15:29:17.838Z,11.90
2023-03-26T15:32:20.146Z,11.90
2023-03-26T15:35:22.060Z,11.80
2023-03-26T15:38:47.451Z,11.90
2023-03-26T15:42:18.489Z,11.90
2023-03-26T15:45:33.216Z,11.90
2023-03-26T15:48:45.009Z,11.90
2023-03-26T15:51:53.022Z,11.90
2023-03-26T15:55:40.954Z,11.90
2023-03-26T15:58:52.811Z,11.90
2023-03-26T16:01:58.861Z,11.90
2023-03-26T16:05:36.878Z,11.80
2023-03-26T16:08:51.863Z,11.70
2023-03-26T16:12:03.737Z,11.80
2023-03-26T16:15:26.042Z,11.80
2023-03-26T16:18:37.303Z,11.70
2023-03-26T16:21:53.286Z,11.70
2023-03-26T16:25:28.460Z,11.60
2023-03-26T16:28:35.941Z,11.50
2023-03-26T16:32:15.156Z,11.50
2023-03-26T16:35:17.146Z,11.40
2023-03-26T16:38:23.782Z,11.40
2023-03-26T16:41:32.720Z,11.50
2023-03-26T16:45:18.464Z,11.60
2023-03-26T16:48:33.236Z,11.40
2023-03-26T16:52:12.462Z,11.40
2023-03-26T16:55:23.340Z,11.50
2023-03-26T16:58:53.368Z,11.50
2023-03-26T17:02:12.960Z,11.60
2023-03-26T17:05:21.640Z,11.50
2023-03-26T17:08:43.735Z,11.40
2023-03-26T17:12:03.868Z,11.50
2023-03-26T17:15:22.701Z,11.40
2023-03-26T17:18:39.571Z,11.50
2023-03-26T17:21:51.699Z,11.50
2023-03-26T17:25:24.509Z,11.50
2023-03-26T17:28:45.111Z,11.50
2023-03-26T17:31:59.582Z,11.40
2023-03-26T17:35:02.602Z,11.40
2023-03-26T17:38:28.767Z,11.40
2023-03-26T17:41:54.272Z,11.40
2023-03-26T17:44:58.717Z,11.30
2023-03-26T17:48:18.560Z,11.40
2023-03-26T17:51:44.788Z,11.30
2023-03-26T17:54:50.478Z,11.30
2023-03-26T17:57:57.111Z,11.20
2023-03-26T18:01:18.476Z,11.20
2023-03-26T18:04:37.960Z,11.20
2023-03-26T18:11:35.915Z,11.30
2023-03-26T18:15:06.515Z,11.20
2023-03-26T18:18:08.520Z,11.10
2023-03-26T18:21:17.711Z,11.10
2023-03-26T18:24:24.084Z,11.10
2023-03-26T18:27:33.359Z,11.20
2023-03-26T18:30:48.949Z,11.10
2023-03-26T18:33:56.141Z,11.20
2023-03-26T18:37:23.260Z,11.10
2023-03-26T18:40:27.870Z,11.00
2023-03-26T18:43:35.145Z,10.90
2023-03-26T18:46:38.573Z,10.90
2023-03-26T18:49:43.845Z,10.90
2023-03-26T18:52:45.837Z,10.70
2023-03-26T18:55:49.332Z,10.80
2023-03-26T18:58:52.654Z,10.80
2023-03-26T19:01:59.606Z,10.80
2023-03-26T19:05:02.379Z,10.70
2023-03-26T19:08:06.320Z,10.70
2023-03-26T19:11:10.606Z,10.70
2023-03-26T19:14:19.220Z,10.70
2023-03-26T19:17:21.890Z,10.70
2023-03-26T19:20:26.964Z,10.70
2023-03-26T19:23:33.597Z,10.60
2023-03-26T19:26:35.897Z,10.60
2023-03-26T19:29:38.489Z,10.60
2023-03-26T19:32:52.157Z,10.60
2023-03-26T19:36:04.705Z,10.60
2023-03-26T19:39:13.119Z,10.50
2023-03-26T19:42:25.607Z,10.50
2023-03-26T19:45:27.685Z,10.50
2023-03-26T19:48:46.317Z,10.40
2023-03-26T19:51:50.947Z,10.40
2023-03-26T19:55:15.356Z,10.50
2023-03-26T19:58:17.382Z,10.40
2023-03-26T20:01:28.667Z,10.50
2023-03-26T20:04:30.955Z,10.50
2023-03-26T20:07:34.896Z,10.50
2023-03-26T20:10:39.561Z,10.50
2023-03-26T20:13:41.596Z,10.50
2023-03-26T20:16:45.301Z,10.50
2023-03-26T20:19:47.999Z,10.50
2023-03-26T20:22:50.043Z,10.60
2023-03-26T20:25:52.376Z,10.70
2023-03-26T20:28:54.368Z,10.60
2023-03-26T20:31:56.392Z,10.60
2023-03-26T20:34:58.490Z,10.60
2023-03-26T20:38:00.534Z,10.50
2023-03-26T20:41:02.620Z,10.40
2023-03-26T20:44:11.815Z,10.40
2023-03-26T20:47:13.812Z,10.50
2023-03-26T20:50:17.744Z,10.50
2023-03-26T20:53:20.344Z,10.50
2023-03-26T20:56:22.413Z,10.50
2023-03-26T20:59:27.159Z,10.40
2023-03-26T21:02:29.400Z,10.40
2023-03-26T21:05:31.918Z,10.40
2023-03-26T21:08:34.205Z,10.50
2023-03-26T21:11:50.134Z,10.50
2023-03-26T21:14:52.449Z,10.50
2023-03-26T21:17:58.718Z,10.50
2023-03-26T21:21:22.336Z,10.50
2023-03-26T21:24:43.106Z,10.50
2023-03-26T21:28:05.858Z,10.40
2023-03-26T21:31:14.405Z,10.40
2023-03-26T21:34:16.638Z,10.40
2023-03-26T21:37:19.135Z,10.40
2023-03-26T21:40:21.657Z,10.50
2023-03-26T21:43:23.982Z,10.40
2023-03-26T21:46:26.390Z,10.40
2023-03-26T21:49:31.899Z,10.50
2023-03-26T21:52:34.788Z,10.50
2023-03-26T21:55:54.286Z,10.50
2023-03-26T21:59:05.076Z,10.40
2023-03-26T22:02:39.022Z,10.30
2023-03-26T22:05:49.288Z,10.40
2023-03-26T22:08:51.511Z,10.30
2023-03-26T22:11:54.021Z,10.40
2023-03-26T22:14:56.009Z,10.30
2023-03-26T22:18:02.891Z,10.30
2023-03-26T22:21:05.433Z,10.30
2023-03-26T22:24:07.615Z,10.30
2023-03-26T22:27:09.791Z,10.30
2023-03-26T22:30:12.568Z,10.40
2023-03-26T22:33:14.602Z,10.30
2023-03-26T22:36:23.121Z,10.30
2023-03-26T22:39:25.959Z,10.30
2023-03-26T22:42:28.149Z,10.40
2023-03-26T22:45:30.498Z,10.40
2023-03-26T22:48:33.174Z,10.30
2023-03-26T22:51:35.152Z,10.30
2023-03-26T22:54:37.128Z,10.20
2023-03-26T22:57:39.716Z,10.30
2023-03-26T23:00:41.782Z,10.30
2023-03-26T23:03:44.350Z,10.20
2023-03-26T23:06:46.333Z,10.20
2023-03-26T23:09:48.623Z,10.20
2023-03-26T23:12:51.803Z,10.20
2023-03-26T23:15:55.695Z,10.00
2023-03-26T23:18:58.108Z,10.00
2023-03-26T23:22:00.158Z,9.90
2023-03-26T23:25:02.094Z,10.00
2023-03-26T23:28:04.272Z,9.90
2023-03-26T23:31:07.823Z,9.70
2023-03-26T23:34:09.872Z,9.80
2023-03-26T23:37:12.331Z,9.70
2023-03-26T23:40:14.348Z,9.70
2023-03-26T23:43:16.630Z,9.70
2023-03-26T23:46:18.716Z,9.80
2023-03-26T23:49:20.713Z,9.70
2023-03-26T23:52:22.667Z,9.90
2023-03-26T23:55:26.689Z,9.90
2023-03-26T23:58:29.805Z,9.70
